sensor_id;sensor_type;location;lat;lon;timestamp;P1;durP1;ratioP1;P2;durP2;ratioP2
76155;SDS011;64906;51.290;7.348;2023-10-08T00:02:26;19.52;;;14.88;;
76155;SDS011;64906;51.290;7.348;2023-10-08T00:04:52;18.52;;;13.93;;
76155;SDS011;64906;51.290;7.348;2023-10-08T00:07:20;18.48;;;13.25;;
76155;SDS011;64906;51.290;7.348;2023-10-08T00:09:49;18.48;;;13.07;;
76155;SDS011;64906;51.290;7.348;2023-10-08T00:12:19;17.35;;;12.45;;
76155;SDS011;64906;51.290;7.348;2023-10-08T00:14:44;18.33;;;12.50;;
76155;SDS011;64906;51.290;7.348;2023-10-08T00:17:14;17.88;;;12.90;;
76155;SDS011;64906;51.290;7.348;2023-10-08T00:19:40;17.70;;;13.57;;
76155;SDS011;64906;51.290;7.348;2023-10-08T00:22:07;19.42;;;13.82;;
76155;SDS011;64906;51.290;7.348;2023-10-08T00:24:35;17.50;;;13.23;;
76155;SDS011;64906;51.290;7.348;2023-10-08T00:27:03;18.20;;;12.43;;
76155;SDS011;64906;51.290;7.348;2023-10-08T00:29:31;20.65;;;12.82;;
76155;SDS011;64906;51.290;7.348;2023-10-08T00:32:04;18.58;;;13.02;;
76155;SDS011;64906;51.290;7.348;2023-10-08T00:34:36;17.33;;;12.07;;
76155;SDS011;64906;51.290;7.348;2023-10-08T00:37:06;17.35;;;12.77;;
76155;SDS011;64906;51.290;7.348;2023-10-08T00:39:34;17.27;;;12.75;;
76155;SDS011;64906;51.290;7.348;2023-10-08T00:42:02;17.98;;;12.77;;
76155;SDS011;64906;51.290;7.348;2023-10-08T00:44:32;17.45;;;12.43;;
76155;SDS011;64906;51.290;7.348;2023-10-08T00:47:16;17.20;;;12.75;;
76155;SDS011;64906;51.290;7.348;2023-10-08T00:49:46;18.40;;;12.57;;
76155;SDS011;64906;51.290;7.348;2023-10-08T00:52:27;17.20;;;12.20;;
76155;SDS011;64906;51.290;7.348;2023-10-08T00:55:05;16.15;;;11.57;;
76155;SDS011;64906;51.290;7.348;2023-10-08T00:57:36;16.95;;;11.95;;
76155;SDS011;64906;51.290;7.348;2023-10-08T01:00:03;16.67;;;12.15;;
76155;SDS011;64906;51.290;7.348;2023-10-08T01:02:31;17.35;;;12.50;;
76155;SDS011;64906;51.290;7.348;2023-10-08T01:05:20;17.13;;;11.77;;
76155;SDS011;64906;51.290;7.348;2023-10-08T01:07:51;16.48;;;11.73;;
76155;SDS011;64906;51.290;7.348;2023-10-08T01:10:17;16.85;;;11.65;;
76155;SDS011;64906;51.290;7.348;2023-10-08T01:12:46;14.90;;;11.00;;
76155;SDS011;64906;51.290;7.348;2023-10-08T01:15:32;17.02;;;11.98;;
76155;SDS011;64906;51.290;7.348;2023-10-08T01:18:00;16.23;;;11.30;;
76155;SDS011;64906;51.290;7.348;2023-10-08T01:20:29;17.60;;;11.80;;
76155;SDS011;64906;51.290;7.348;2023-10-08T01:22:59;19.40;;;12.63;;
76155;SDS011;64906;51.290;7.348;2023-10-08T01:25:35;16.70;;;12.05;;
76155;SDS011;64906;51.290;7.348;2023-10-08T01:28:01;15.15;;;11.02;;
76155;SDS011;64906;51.290;7.348;2023-10-08T01:30:33;14.90;;;11.02;;
76155;SDS011;64906;51.290;7.348;2023-10-08T01:33:06;16.58;;;11.45;;
76155;SDS011;64906;51.290;7.348;2023-10-08T01:35:35;18.20;;;11.73;;
76155;SDS011;64906;51.290;7.348;2023-10-08T01:38:00;15.05;;;11.02;;
76155;SDS011;64906;51.290;7.348;2023-10-08T01:40:26;15.43;;;11.67;;
76155;SDS011;64906;51.290;7.348;2023-10-08T01:42:51;15.45;;;11.27;;
76155;SDS011;64906;51.290;7.348;2023-10-08T01:45:17;14.88;;;11.18;;
76155;SDS011;64906;51.290;7.348;2023-10-08T01:47:43;15.30;;;11.10;;
76155;SDS011;64906;51.290;7.348;2023-10-08T01:50:09;16.20;;;11.15;;
76155;SDS011;64906;51.290;7.348;2023-10-08T01:52:46;16.02;;;11.18;;
76155;SDS011;64906;51.290;7.348;2023-10-08T01:55:14;14.80;;;10.93;;
76155;SDS011;64906;51.290;7.348;2023-10-08T01:57:44;15.73;;;11.10;;
76155;SDS011;64906;51.290;7.348;2023-10-08T02:00:10;15.82;;;11.10;;
76155;SDS011;64906;51.290;7.348;2023-10-08T02:02:36;15.38;;;10.90;;
76155;SDS011;64906;51.290;7.348;2023-10-08T02:05:01;16.45;;;11.10;;
76155;SDS011;64906;51.290;7.348;2023-10-08T02:07:30;15.30;;;10.82;;
76155;SDS011;64906;51.290;7.348;2023-10-08T02:09:55;15.82;;;11.15;;
76155;SDS011;64906;51.290;7.348;2023-10-08T02:12:22;15.05;;;10.85;;
76155;SDS011;64906;51.290;7.348;2023-10-08T02:14:47;15.25;;;10.38;;
76155;SDS011;64906;51.290;7.348;2023-10-08T02:17:14;15.45;;;10.57;;
76155;SDS011;64906;51.290;7.348;2023-10-08T02:19:39;17.30;;;10.73;;
76155;SDS011;64906;51.290;7.348;2023-10-08T02:22:06;15.05;;;10.63;;
76155;SDS011;64906;51.290;7.348;2023-10-08T02:24:34;14.60;;;10.55;;
76155;SDS011;64906;51.290;7.348;2023-10-08T02:27:01;13.88;;;10.23;;
76155;SDS011;64906;51.290;7.348;2023-10-08T02:29:27;14.73;;;10.43;;
76155;SDS011;64906;51.290;7.348;2023-10-08T02:31:53;13.82;;;10.00;;
76155;SDS011;64906;51.290;7.348;2023-10-08T02:34:21;14.10;;;10.05;;
76155;SDS011;64906;51.290;7.348;2023-10-08T02:36:47;14.50;;;10.57;;
76155;SDS011;64906;51.290;7.348;2023-10-08T02:39:12;13.80;;;10.10;;
76155;SDS011;64906;51.290;7.348;2023-10-08T02:41:42;14.98;;;10.20;;
76155;SDS011;64906;51.290;7.348;2023-10-08T02:44:11;15.60;;;10.52;;
76155;SDS011;64906;51.290;7.348;2023-10-08T02:46:39;13.55;;;9.38;;
76155;SDS011;64906;51.290;7.348;2023-10-08T02:49:09;13.70;;;9.38;;
76155;SDS011;64906;51.290;7.348;2023-10-08T02:51:41;15.23;;;10.75;;
76155;SDS011;64906;51.290;7.348;2023-10-08T02:54:09;13.75;;;9.48;;
76155;SDS011;64906;51.290;7.348;2023-10-08T02:56:52;15.48;;;10.15;;
76155;SDS011;64906;51.290;7.348;2023-10-08T02:59:23;14.90;;;10.25;;
76155;SDS011;64906;51.290;7.348;2023-10-08T03:01:49;14.13;;;9.88;;
76155;SDS011;64906;51.290;7.348;2023-10-08T03:04:15;15.55;;;10.63;;
76155;SDS011;64906;51.290;7.348;2023-10-08T03:06:46;13.43;;;9.63;;
76155;SDS011;64906;51.290;7.348;2023-10-08T03:09:20;13.63;;;9.20;;
76155;SDS011;64906;51.290;7.348;2023-10-08T03:11:48;14.70;;;10.18;;
76155;SDS011;64906;51.290;7.348;2023-10-08T03:14:17;17.23;;;10.10;;
76155;SDS011;64906;51.290;7.348;2023-10-08T03:16:52;12.15;;;9.15;;
76155;SDS011;64906;51.290;7.348;2023-10-08T03:19:20;13.07;;;9.38;;
76155;SDS011;64906;51.290;7.348;2023-10-08T03:21:47;12.77;;;8.98;;
76155;SDS011;64906;51.290;7.348;2023-10-08T03:24:17;13.75;;;9.65;;
76155;SDS011;64906;51.290;7.348;2023-10-08T03:26:55;13.43;;;9.20;;
76155;SDS011;64906;51.290;7.348;2023-10-08T03:29:31;15.13;;;10.40;;
76155;SDS011;64906;51.290;7.348;2023-10-08T03:31:57;14.07;;;9.40;;
76155;SDS011;64906;51.290;7.348;2023-10-08T03:34:22;13.02;;;9.23;;
76155;SDS011;64906;51.290;7.348;2023-10-08T03:36:52;13.55;;;9.23;;
76155;SDS011;64906;51.290;7.348;2023-10-08T03:39:24;12.88;;;9.05;;
76155;SDS011;64906;51.290;7.348;2023-10-08T03:42:06;13.32;;;9.18;;
76155;SDS011;64906;51.290;7.348;2023-10-08T03:44:34;14.05;;;9.32;;
76155;SDS011;64906;51.290;7.348;2023-10-08T03:47:02;13.48;;;10.30;;
76155;SDS011;64906;51.290;7.348;2023-10-08T03:49:35;12.35;;;8.65;;
76155;SDS011;64906;51.290;7.348;2023-10-08T03:52:02;13.38;;;8.85;;
76155;SDS011;64906;51.290;7.348;2023-10-08T03:54:31;12.68;;;8.60;;
76155;SDS011;64906;51.290;7.348;2023-10-08T03:57:00;14.25;;;10.13;;
76155;SDS011;64906;51.290;7.348;2023-10-08T03:59:29;13.25;;;8.88;;
76155;SDS011;64906;51.290;7.348;2023-10-08T04:01:56;12.98;;;8.88;;
76155;SDS011;64906;51.290;7.348;2023-10-08T04:04:49;13.00;;;9.63;;
76155;SDS011;64906;51.290;7.348;2023-10-08T04:07:25;13.77;;;9.45;;
76155;SDS011;64906;51.290;7.348;2023-10-08T04:10:04;13.02;;;9.20;;
76155;SDS011;64906;51.290;7.348;2023-10-08T04:12:50;12.63;;;8.48;;
76155;SDS011;64906;51.290;7.348;2023-10-08T04:15:19;12.85;;;8.98;;
76155;SDS011;64906;51.290;7.348;2023-10-08T04:17:44;12.82;;;8.27;;
76155;SDS011;64906;51.290;7.348;2023-10-08T04:20:14;11.63;;;8.13;;
76155;SDS011;64906;51.290;7.348;2023-10-08T04:23:09;11.13;;;7.60;;
76155;SDS011;64906;51.290;7.348;2023-10-08T04:25:46;11.93;;;8.32;;
76155;SDS011;64906;51.290;7.348;2023-10-08T04:28:18;12.82;;;8.55;;
76155;SDS011;64906;51.290;7.348;2023-10-08T04:30:45;13.25;;;9.52;;
76155;SDS011;64906;51.290;7.348;2023-10-08T04:33:13;12.07;;;8.18;;
76155;SDS011;64906;51.290;7.348;2023-10-08T04:35:48;12.68;;;8.60;;
76155;SDS011;64906;51.290;7.348;2023-10-08T04:38:21;12.18;;;8.27;;
76155;SDS011;64906;51.290;7.348;2023-10-08T04:40:48;12.98;;;9.40;;
76155;SDS011;64906;51.290;7.348;2023-10-08T04:43:16;12.68;;;8.07;;
76155;SDS011;64906;51.290;7.348;2023-10-08T04:45:49;10.20;;;7.47;;
76155;SDS011;64906;51.290;7.348;2023-10-08T04:48:15;12.65;;;8.43;;
76155;SDS011;64906;51.290;7.348;2023-10-08T04:50:45;11.90;;;8.65;;
76155;SDS011;64906;51.290;7.348;2023-10-08T04:53:11;12.15;;;8.02;;
76155;SDS011;64906;51.290;7.348;2023-10-08T04:55:40;12.57;;;7.68;;
76155;SDS011;64906;51.290;7.348;2023-10-08T04:58:13;13.02;;;9.18;;
76155;SDS011;64906;51.290;7.348;2023-10-08T05:00:46;11.35;;;7.45;;
76155;SDS011;64906;51.290;7.348;2023-10-08T05:03:24;10.25;;;7.03;;
76155;SDS011;64906;51.290;7.348;2023-10-08T05:05:57;11.38;;;7.82;;
76155;SDS011;64906;51.290;7.348;2023-10-08T05:08:39;12.45;;;8.60;;
76155;SDS011;64906;51.290;7.348;2023-10-08T05:11:27;10.95;;;7.45;;
76155;SDS011;64906;51.290;7.348;2023-10-08T05:14:11;11.38;;;7.53;;
76155;SDS011;64906;51.290;7.348;2023-10-08T05:16:58;11.63;;;7.30;;
76155;SDS011;64906;51.290;7.348;2023-10-08T05:19:43;10.73;;;7.10;;
76155;SDS011;64906;51.290;7.348;2023-10-08T05:22:27;10.32;;;6.97;;
76155;SDS011;64906;51.290;7.348;2023-10-08T05:24:52;13.50;;;7.47;;
76155;SDS011;64906;51.290;7.348;2023-10-08T05:27:36;10.65;;;7.53;;
76155;SDS011;64906;51.290;7.348;2023-10-08T05:30:06;11.00;;;7.18;;
76155;SDS011;64906;51.290;7.348;2023-10-08T05:32:44;11.40;;;7.68;;
76155;SDS011;64906;51.290;7.348;2023-10-08T05:35:31;10.90;;;7.25;;
76155;SDS011;64906;51.290;7.348;2023-10-08T05:38:07;11.10;;;7.15;;
76155;SDS011;64906;51.290;7.348;2023-10-08T05:40:44;11.55;;;7.38;;
76155;SDS011;64906;51.290;7.348;2023-10-08T05:43:30;9.65;;;6.80;;
76155;SDS011;64906;51.290;7.348;2023-10-08T05:46:10;10.98;;;7.18;;
76155;SDS011;64906;51.290;7.348;2023-10-08T05:48:55;11.60;;;8.43;;
76155;SDS011;64906;51.290;7.348;2023-10-08T05:51:30;11.30;;;7.25;;
76155;SDS011;64906;51.290;7.348;2023-10-08T05:54:20;10.02;;;6.93;;
76155;SDS011;64906;51.290;7.348;2023-10-08T05:56:58;9.77;;;6.68;;
76155;SDS011;64906;51.290;7.348;2023-10-08T06:02:17;12.82;;;7.15;;
76155;SDS011;64906;51.290;7.348;2023-10-08T06:04:58;12.10;;;6.85;;
76155;SDS011;64906;51.290;7.348;2023-10-08T06:07:45;10.77;;;6.72;;
76155;SDS011;64906;51.290;7.348;2023-10-08T06:10:21;10.90;;;7.22;;
76155;SDS011;64906;51.290;7.348;2023-10-08T06:15:39;11.30;;;6.55;;
76155;SDS011;64906;51.290;7.348;2023-10-08T06:18:13;11.85;;;6.82;;
76155;SDS011;64906;51.290;7.348;2023-10-08T06:20:42;12.32;;;6.50;;
76155;SDS011;64906;51.290;7.348;2023-10-08T06:23:11;10.85;;;6.55;;
76155;SDS011;64906;51.290;7.348;2023-10-08T06:25:42;10.60;;;7.07;;
76155;SDS011;64906;51.290;7.348;2023-10-08T06:28:17;9.68;;;6.20;;
76155;SDS011;64906;51.290;7.348;2023-10-08T06:30:44;10.32;;;6.60;;
76155;SDS011;64906;51.290;7.348;2023-10-08T06:33:13;9.82;;;6.60;;
76155;SDS011;64906;51.290;7.348;2023-10-08T06:35:39;9.45;;;6.43;;
76155;SDS011;64906;51.290;7.348;2023-10-08T06:38:09;11.80;;;6.68;;
76155;SDS011;64906;51.290;7.348;2023-10-08T06:40:35;9.70;;;6.47;;
76155;SDS011;64906;51.290;7.348;2023-10-08T06:43:01;9.85;;;6.25;;
76155;SDS011;64906;51.290;7.348;2023-10-08T06:45:44;10.32;;;6.35;;
76155;SDS011;64906;51.290;7.348;2023-10-08T06:48:11;10.55;;;6.20;;
76155;SDS011;64906;51.290;7.348;2023-10-08T06:50:44;9.07;;;5.78;;
76155;SDS011;64906;51.290;7.348;2023-10-08T06:53:10;9.60;;;6.38;;
76155;SDS011;64906;51.290;7.348;2023-10-08T06:55:38;9.88;;;6.30;;
76155;SDS011;64906;51.290;7.348;2023-10-08T06:58:07;10.13;;;6.32;;
76155;SDS011;64906;51.290;7.348;2023-10-08T07:00:34;11.05;;;6.63;;
76155;SDS011;64906;51.290;7.348;2023-10-08T07:03:05;10.40;;;6.38;;
76155;SDS011;64906;51.290;7.348;2023-10-08T07:05:35;9.63;;;6.43;;
76155;SDS011;64906;51.290;7.348;2023-10-08T07:08:09;8.80;;;5.70;;
76155;SDS011;64906;51.290;7.348;2023-10-08T07:10:38;10.43;;;6.20;;
76155;SDS011;64906;51.290;7.348;2023-10-08T07:13:03;9.43;;;6.50;;
76155;SDS011;64906;51.290;7.348;2023-10-08T07:15:30;9.65;;;6.28;;
76155;SDS011;64906;51.290;7.348;2023-10-08T07:17:56;9.48;;;6.05;;
76155;SDS011;64906;51.290;7.348;2023-10-08T07:20:22;9.63;;;5.82;;
76155;SDS011;64906;51.290;7.348;2023-10-08T07:22:48;10.40;;;6.45;;
76155;SDS011;64906;51.290;7.348;2023-10-08T07:25:22;9.40;;;6.30;;
76155;SDS011;64906;51.290;7.348;2023-10-08T07:27:47;9.27;;;6.18;;
76155;SDS011;64906;51.290;7.348;2023-10-08T07:30:13;11.65;;;7.97;;
76155;SDS011;64906;51.290;7.348;2023-10-08T07:32:51;15.90;;;9.98;;
76155;SDS011;64906;51.290;7.348;2023-10-08T07:35:23;15.55;;;9.68;;
76155;SDS011;64906;51.290;7.348;2023-10-08T07:37:51;15.52;;;10.45;;
76155;SDS011;64906;51.290;7.348;2023-10-08T07:40:19;17.02;;;10.63;;
76155;SDS011;64906;51.290;7.348;2023-10-08T07:42:47;14.68;;;10.23;;
76155;SDS011;64906;51.290;7.348;2023-10-08T07:45:17;20.10;;;12.27;;
76155;SDS011;64906;51.290;7.348;2023-10-08T07:47:43;33.67;;;22.25;;
76155;SDS011;64906;51.290;7.348;2023-10-08T07:50:09;43.75;;;29.40;;
76155;SDS011;64906;51.290;7.348;2023-10-08T07:52:38;52.38;;;33.45;;
76155;SDS011;64906;51.290;7.348;2023-10-08T07:55:03;49.75;;;33.20;;
76155;SDS011;64906;51.290;7.348;2023-10-08T07:57:30;54.42;;;35.55;;
76155;SDS011;64906;51.290;7.348;2023-10-08T07:59:56;57.22;;;38.97;;
76155;SDS011;64906;51.290;7.348;2023-10-08T08:02:29;55.13;;;36.75;;
76155;SDS011;64906;51.290;7.348;2023-10-08T08:04:57;58.47;;;38.10;;
76155;SDS011;64906;51.290;7.348;2023-10-08T08:07:22;55.10;;;36.53;;
76155;SDS011;64906;51.290;7.348;2023-10-08T08:09:50;55.67;;;36.92;;
76155;SDS011;64906;51.290;7.348;2023-10-08T08:12:17;58.47;;;38.10;;
76155;SDS011;64906;51.290;7.348;2023-10-08T08:14:44;55.75;;;41.22;;
76155;SDS011;64906;51.290;7.348;2023-10-08T08:17:10;58.10;;;38.38;;
76155;SDS011;64906;51.290;7.348;2023-10-08T08:19:45;59.28;;;40.00;;
76155;SDS011;64906;51.290;7.348;2023-10-08T08:22:12;59.65;;;40.35;;
76155;SDS011;64906;51.290;7.348;2023-10-08T08:24:52;59.20;;;39.20;;
76155;SDS011;64906;51.290;7.348;2023-10-08T08:27:21;59.10;;;39.70;;
76155;SDS011;64906;51.290;7.348;2023-10-08T08:29:53;61.42;;;39.22;;
76155;SDS011;64906;51.290;7.348;2023-10-08T08:32:21;62.80;;;40.72;;
76155;SDS011;64906;51.290;7.348;2023-10-08T08:34:48;61.65;;;44.58;;
76155;SDS011;64906;51.290;7.348;2023-10-08T08:37:19;60.25;;;39.60;;
76155;SDS011;64906;51.290;7.348;2023-10-08T08:39:50;62.15;;;41.45;;
76155;SDS011;64906;51.290;7.348;2023-10-08T08:42:16;62.83;;;40.80;;
76155;SDS011;64906;51.290;7.348;2023-10-08T08:44:47;58.75;;;39.03;;
76155;SDS011;64906;51.290;7.348;2023-10-08T08:47:16;58.58;;;39.10;;
76155;SDS011;64906;51.290;7.348;2023-10-08T08:49:43;62.78;;;40.20;;
76155;SDS011;64906;51.290;7.348;2023-10-08T08:52:10;60.03;;;38.72;;
76155;SDS011;64906;51.290;7.348;2023-10-08T08:54:39;78.38;;;53.03;;
76155;SDS011;64906;51.290;7.348;2023-10-08T08:57:15;106.65;;;70.07;;
76155;SDS011;64906;51.290;7.348;2023-10-08T08:59:49;146.68;;;100.22;;
76155;SDS011;64906;51.290;7.348;2023-10-08T09:02:19;138.38;;;92.68;;
76155;SDS011;64906;51.290;7.348;2023-10-08T09:04:45;146.50;;;96.82;;
76155;SDS011;64906;51.290;7.348;2023-10-08T09:07:13;138.60;;;90.82;;
76155;SDS011;64906;51.290;7.348;2023-10-08T09:09:39;140.20;;;95.90;;
76155;SDS011;64906;51.290;7.348;2023-10-08T09:12:05;131.00;;;89.13;;
76155;SDS011;64906;51.290;7.348;2023-10-08T09:14:33;132.25;;;94.45;;
76155;SDS011;64906;51.290;7.348;2023-10-08T09:17:00;128.85;;;86.05;;
76155;SDS011;64906;51.290;7.348;2023-10-08T09:19:26;130.57;;;91.28;;
76155;SDS011;64906;51.290;7.348;2023-10-08T09:22:08;124.88;;;84.63;;
76155;SDS011;64906;51.290;7.348;2023-10-08T09:24:38;120.03;;;81.95;;
76155;SDS011;64906;51.290;7.348;2023-10-08T09:27:05;118.47;;;79.47;;
76155;SDS011;64906;51.290;7.348;2023-10-08T09:29:32;122.28;;;86.72;;
76155;SDS011;64906;51.290;7.348;2023-10-08T09:32:01;112.28;;;75.78;;
76155;SDS011;64906;51.290;7.348;2023-10-08T09:34:30;113.68;;;77.40;;
76155;SDS011;64906;51.290;7.348;2023-10-08T09:36:57;114.18;;;80.32;;
76155;SDS011;64906;51.290;7.348;2023-10-08T09:39:25;118.90;;;77.25;;
76155;SDS011;64906;51.290;7.348;2023-10-08T09:41:54;107.90;;;70.95;;
76155;SDS011;64906;51.290;7.348;2023-10-08T09:44:20;111.07;;;72.57;;
76155;SDS011;64906;51.290;7.348;2023-10-08T09:46:51;110.60;;;72.82;;
76155;SDS011;64906;51.290;7.348;2023-10-08T09:49:19;100.53;;;68.53;;
76155;SDS011;64906;51.290;7.348;2023-10-08T09:51:52;104.88;;;70.05;;
76155;SDS011;64906;51.290;7.348;2023-10-08T09:54:20;106.13;;;68.13;;
76155;SDS011;64906;51.290;7.348;2023-10-08T09:56:50;95.05;;;63.35;;
76155;SDS011;64906;51.290;7.348;2023-10-08T09:59:17;98.40;;;63.20;;
76155;SDS011;64906;51.290;7.348;2023-10-08T10:01:45;95.35;;;62.90;;
76155;SDS011;64906;51.290;7.348;2023-10-08T10:04:21;95.40;;;64.32;;
76155;SDS011;64906;51.290;7.348;2023-10-08T10:06:49;94.80;;;63.42;;
76155;SDS011;64906;51.290;7.348;2023-10-08T10:09:22;93.60;;;61.97;;
76155;SDS011;64906;51.290;7.348;2023-10-08T10:11:49;90.90;;;60.45;;
76155;SDS011;64906;51.290;7.348;2023-10-08T10:14:15;89.97;;;58.25;;
76155;SDS011;64906;51.290;7.348;2023-10-08T10:16:43;86.80;;;58.70;;
76155;SDS011;64906;51.290;7.348;2023-10-08T10:19:20;89.72;;;57.75;;
76155;SDS011;64906;51.290;7.348;2023-10-08T10:21:46;87.97;;;57.45;;
76155;SDS011;64906;51.290;7.348;2023-10-08T10:24:27;84.97;;;56.33;;
76155;SDS011;64906;51.290;7.348;2023-10-08T10:27:14;83.05;;;54.95;;
76155;SDS011;64906;51.290;7.348;2023-10-08T10:29:41;86.20;;;56.45;;
76155;SDS011;64906;51.290;7.348;2023-10-08T10:32:11;83.90;;;53.70;;
76155;SDS011;64906;51.290;7.348;2023-10-08T10:34:40;80.45;;;53.83;;
76155;SDS011;64906;51.290;7.348;2023-10-08T10:37:07;90.57;;;62.88;;
76155;SDS011;64906;51.290;7.348;2023-10-08T10:42:26;92.68;;;57.58;;
76155;SDS011;64906;51.290;7.348;2023-10-08T10:44:53;87.50;;;57.88;;
76155;SDS011;64906;51.290;7.348;2023-10-08T10:47:21;89.28;;;56.35;;
76155;SDS011;64906;51.290;7.348;2023-10-08T10:49:47;82.28;;;55.47;;
76155;SDS011;64906;51.290;7.348;2023-10-08T10:52:20;82.70;;;54.70;;
76155;SDS011;64906;51.290;7.348;2023-10-08T10:55:05;83.45;;;55.63;;
76155;SDS011;64906;51.290;7.348;2023-10-08T10:57:45;83.18;;;54.78;;
76155;SDS011;64906;51.290;7.348;2023-10-08T11:00:19;79.75;;;54.38;;
76155;SDS011;64906;51.290;7.348;2023-10-08T11:02:58;83.78;;;58.20;;
76155;SDS011;64906;51.290;7.348;2023-10-08T11:05:50;80.57;;;53.22;;
76155;SDS011;64906;51.290;7.348;2023-10-08T11:08:30;79.22;;;51.35;;
76155;SDS011;64906;51.290;7.348;2023-10-08T11:10:59;77.03;;;51.63;;
76155;SDS011;64906;51.290;7.348;2023-10-08T11:13:30;81.47;;;51.63;;
76155;SDS011;64906;51.290;7.348;2023-10-08T11:16:04;77.15;;;50.60;;
76155;SDS011;64906;51.290;7.348;2023-10-08T11:18:30;75.68;;;51.85;;
76155;SDS011;64906;51.290;7.348;2023-10-08T11:21:07;75.65;;;48.40;;
76155;SDS011;64906;51.290;7.348;2023-10-08T11:23:44;72.07;;;46.80;;
76155;SDS011;64906;51.290;7.348;2023-10-08T11:26:38;67.13;;;45.97;;
76155;SDS011;64906;51.290;7.348;2023-10-08T11:29:19;68.78;;;45.38;;
76155;SDS011;64906;51.290;7.348;2023-10-08T11:31:53;64.35;;;43.10;;
76155;SDS011;64906;51.290;7.348;2023-10-08T11:34:18;65.72;;;42.85;;
76155;SDS011;64906;51.290;7.348;2023-10-08T11:36:52;66.45;;;42.08;;
76155;SDS011;64906;51.290;7.348;2023-10-08T11:39:18;60.95;;;41.22;;
76155;SDS011;64906;51.290;7.348;2023-10-08T11:41:56;64.22;;;44.67;;
76155;SDS011;64906;51.290;7.348;2023-10-08T11:44:31;62.15;;;39.40;;
76155;SDS011;64906;51.290;7.348;2023-10-08T11:47:01;55.83;;;36.95;;
76155;SDS011;64906;51.290;7.348;2023-10-08T11:49:34;57.17;;;38.28;;
76155;SDS011;64906;51.290;7.348;2023-10-08T11:52:01;57.08;;;37.75;;
76155;SDS011;64906;51.290;7.348;2023-10-08T11:54:27;55.50;;;35.95;;
76155;SDS011;64906;51.290;7.348;2023-10-08T11:56:53;59.15;;;38.13;;
76155;SDS011;64906;51.290;7.348;2023-10-08T11:59:21;55.58;;;36.90;;
76155;SDS011;64906;51.290;7.348;2023-10-08T12:01:49;56.22;;;36.60;;
76155;SDS011;64906;51.290;7.348;2023-10-08T12:04:16;54.75;;;35.78;;
76155;SDS011;64906;51.290;7.348;2023-10-08T12:06:42;55.58;;;39.30;;
76155;SDS011;64906;51.290;7.348;2023-10-08T12:09:17;54.00;;;39.42;;
76155;SDS011;64906;51.290;7.348;2023-10-08T12:11:43;55.40;;;37.53;;
76155;SDS011;64906;51.290;7.348;2023-10-08T12:14:09;50.23;;;34.27;;
76155;SDS011;64906;51.290;7.348;2023-10-08T12:16:35;52.08;;;36.00;;
76155;SDS011;64906;51.290;7.348;2023-10-08T12:19:01;54.60;;;35.40;;
76155;SDS011;64906;51.290;7.348;2023-10-08T12:21:31;51.05;;;35.17;;
76155;SDS011;64906;51.290;7.348;2023-10-08T12:23:57;52.20;;;35.00;;
76155;SDS011;64906;51.290;7.348;2023-10-08T12:26:23;55.75;;;35.10;;
76155;SDS011;64906;51.290;7.348;2023-10-08T12:28:48;50.50;;;34.90;;
76155;SDS011;64906;51.290;7.348;2023-10-08T12:31:15;52.85;;;35.42;;
76155;SDS011;64906;51.290;7.348;2023-10-08T12:33:42;52.50;;;35.10;;
76155;SDS011;64906;51.290;7.348;2023-10-08T12:36:08;52.33;;;34.75;;
76155;SDS011;64906;51.290;7.348;2023-10-08T12:38:41;53.03;;;35.78;;
76155;SDS011;64906;51.290;7.348;2023-10-08T12:41:08;52.85;;;35.78;;
76155;SDS011;64906;51.290;7.348;2023-10-08T12:43:37;54.65;;;35.17;;
76155;SDS011;64906;51.290;7.348;2023-10-08T12:46:17;53.40;;;34.38;;
76155;SDS011;64906;51.290;7.348;2023-10-08T12:48:49;51.42;;;34.17;;
76155;SDS011;64906;51.290;7.348;2023-10-08T12:51:22;52.15;;;34.85;;
76155;SDS011;64906;51.290;7.348;2023-10-08T12:53:49;54.10;;;35.10;;
76155;SDS011;64906;51.290;7.348;2023-10-08T12:56:20;49.83;;;34.08;;
76155;SDS011;64906;51.290;7.348;2023-10-08T12:58:56;51.00;;;34.30;;
76155;SDS011;64906;51.290;7.348;2023-10-08T13:01:22;52.33;;;34.55;;
76155;SDS011;64906;51.290;7.348;2023-10-08T13:03:47;45.43;;;30.40;;
76155;SDS011;64906;51.290;7.348;2023-10-08T13:06:17;45.13;;;28.00;;
76155;SDS011;64906;51.290;7.348;2023-10-08T13:08:48;46.20;;;31.75;;
76155;SDS011;64906;51.290;7.348;2023-10-08T13:11:14;48.03;;;32.30;;
76155;SDS011;64906;51.290;7.348;2023-10-08T13:13:40;47.58;;;31.83;;
76155;SDS011;64906;51.290;7.348;2023-10-08T13:16:06;50.63;;;33.70;;
76155;SDS011;64906;51.290;7.348;2023-10-08T13:18:34;48.00;;;32.63;;
76155;SDS011;64906;51.290;7.348;2023-10-08T13:21:02;49.83;;;32.45;;
76155;SDS011;64906;51.290;7.348;2023-10-08T13:23:28;49.03;;;33.33;;
76155;SDS011;64906;51.290;7.348;2023-10-08T13:25:54;49.35;;;34.42;;
76155;SDS011;64906;51.290;7.348;2023-10-08T13:28:20;49.00;;;33.22;;
76155;SDS011;64906;51.290;7.348;2023-10-08T13:30:47;49.85;;;32.60;;
76155;SDS011;64906;51.290;7.348;2023-10-08T13:33:17;50.83;;;33.30;;
76155;SDS011;64906;51.290;7.348;2023-10-08T13:35:44;48.45;;;33.20;;
76155;SDS011;64906;51.290;7.348;2023-10-08T13:38:09;47.53;;;33.20;;
76155;SDS011;64906;51.290;7.348;2023-10-08T13:40:35;51.80;;;33.70;;
76155;SDS011;64906;51.290;7.348;2023-10-08T13:43:08;46.92;;;32.47;;
76155;SDS011;64906;51.290;7.348;2023-10-08T13:45:36;47.53;;;31.92;;
76155;SDS011;64906;51.290;7.348;2023-10-08T13:48:05;48.15;;;32.75;;
76155;SDS011;64906;51.290;7.348;2023-10-08T13:50:32;49.28;;;33.03;;
76155;SDS011;64906;51.290;7.348;2023-10-08T13:52:57;49.70;;;33.03;;
76155;SDS011;64906;51.290;7.348;2023-10-08T13:55:23;49.25;;;32.35;;
76155;SDS011;64906;51.290;7.348;2023-10-08T13:57:50;48.75;;;32.50;;
76155;SDS011;64906;51.290;7.348;2023-10-08T14:00:16;47.22;;;32.92;;
76155;SDS011;64906;51.290;7.348;2023-10-08T14:02:42;56.30;;;37.25;;
76155;SDS011;64906;51.290;7.348;2023-10-08T14:05:09;48.60;;;32.67;;
76155;SDS011;64906;51.290;7.348;2023-10-08T14:07:40;49.60;;;31.90;;
76155;SDS011;64906;51.290;7.348;2023-10-08T14:10:09;47.28;;;31.08;;
76155;SDS011;64906;51.290;7.348;2023-10-08T14:12:43;50.08;;;33.35;;
76155;SDS011;64906;51.290;7.348;2023-10-08T14:15:12;49.13;;;31.80;;
76155;SDS011;64906;51.290;7.348;2023-10-08T14:17:40;48.30;;;32.00;;
76155;SDS011;64906;51.290;7.348;2023-10-08T14:20:08;48.88;;;32.17;;
76155;SDS011;64906;51.290;7.348;2023-10-08T14:22:38;49.88;;;34.88;;
76155;SDS011;64906;51.290;7.348;2023-10-08T14:25:06;49.72;;;32.17;;
76155;SDS011;64906;51.290;7.348;2023-10-08T14:27:37;50.00;;;33.88;;
76155;SDS011;64906;51.290;7.348;2023-10-08T14:30:09;52.42;;;34.28;;
76155;SDS011;64906;51.290;7.348;2023-10-08T14:32:42;54.17;;;37.85;;
76155;SDS011;64906;51.290;7.348;2023-10-08T14:35:11;53.47;;;35.65;;
76155;SDS011;64906;51.290;7.348;2023-10-08T14:37:55;51.47;;;33.80;;
76155;SDS011;64906;51.290;7.348;2023-10-08T14:40:39;51.75;;;35.40;;
76155;SDS011;64906;51.290;7.348;2023-10-08T14:43:23;50.75;;;34.03;;
76155;SDS011;64906;51.290;7.348;2023-10-08T14:45:49;54.47;;;35.95;;
76155;SDS011;64906;51.290;7.348;2023-10-08T14:48:14;51.60;;;34.92;;
76155;SDS011;64906;51.290;7.348;2023-10-08T14:50:41;50.88;;;34.28;;
76155;SDS011;64906;51.290;7.348;2023-10-08T14:53:07;52.95;;;37.17;;
76155;SDS011;64906;51.290;7.348;2023-10-08T14:55:32;54.47;;;35.13;;